Pagrindinis puslapis
METAR-TAF:

METAR-TAF

Oro uostai :

Halmstadas, Švedija

platuma: 56-41N, ilguma: 012-50E, Aukštis: 30 m

Dabartinis oras

Ataskaita buvo paskelbta 29 minutes, ne 06:50 UTC
Vėjas 11 kt iš Šiaurės Vakarų
Temperatūra 15°C
Drėgmė 94%
Slėgis 1012 hPa
Matomumas 10 km arba daugiau

METAR: ESMT 230650Z AUTO 31011KT 9999 FEW008/// OVC011/// 15/14 Q1012

Laikas: 09:19 (07:19 UTC)

Prognozė

Ataskaita buvo paskelbta 17 valandos ir 23 minutes, ne 13:56 UTC
Prognozė galioja nuo 22 metu 15 UTC su 22 metu 17 UTC
Vėjas 5 kt iš Rytų
Matomumas: 9000 m
Išsisklaidę debesys ne aukštis 700 ft
Laikinai
nuo 22 metu 15 UTC su 22 metu 17 UTC
Matomumas: 2500 m
Su prošvaistėmis ne aukštis 400 ft
Išsisklaidę debesys ne aukštis 1500 ft, Liūtiniai kamuoliniai debesys.
lietus, rūkana,

TAF: ESMT 221356Z 2215/2217 08005KT 9000 SCT007 TEMPO 2215/2217 2500 -SHRA BR BKN004 SCT015CB

Orai ataskaitas ir orų prognozės (METAR, TAF).

turimą stotys yra geltonos ir raudonos taškus žemėlapyje.

Perkelti pele per norėdami pamatyti stoties vardą.

Tada spustelėkite, norėdami matyti oro stebėjimo ir prognozės.

Norėdami pakeisti žemėlapį: spustelėkite ant žalios mygtukų su juodo kryžiaus žemyn,; žalią mygtuką su brūkšneliu, jei norite nutolinti; arba žalių rodyklių gretimoms žemėlapius.


METAR-TAF: